Time;durP1;ratioP1;P1;durP2;ratioP2;P2;SDS_P1;SDS_P2;PMS_P1;PMS_P2;Temp;Humidity;BMP_temperature;BMP_pressure;BME280_temperature;BME280_humidity;BME280_pressure;Samples;Min_cycle;Max_cycle;Signal;HPM_P1;HPM_P2
2021/10/15 00:02:03;;;;;;;;;;;16.20;99.90;;;;;;5037310;28;867;-50
2021/10/15 00:04:29;;;;;;;;;;;16.20;99.90;;;;;;5037255;28;923;-49
2021/10/15 00:06:55;;;;;;;;;;;16.20;99.90;;;;;;5037073;28;1034;-49
2021/10/15 00:09:23;;;;;;;;;;;16.20;99.90;;;;;;5037184;28;927;-50
2021/10/15 00:11:50;;;;;;;;;;;16.10;99.90;;;;;;5019506;28;2347;-50
2021/10/15 00:14:18;;;;;;;;;;;16.10;99.90;;;;;;5036285;28;1020;-49
2021/10/15 00:16:45;;;;;;;;;;;16.10;99.90;;;;;;5018966;28;1902;-49
2021/10/15 00:19:11;;;;;;;;;;;16.10;99.90;;;;;;5025733;28;1283;-46
2021/10/15 00:21:37;;;;;;;;;;;16.10;99.90;;;;;;4999563;28;1096;-47
2021/10/15 00:24:03;;;;;;;;;;;16.10;99.90;;;;;;5017119;28;922;-46
2021/10/15 00:26:29;;;;;;;;;;;16.10;99.90;;;;;;5016837;28;1035;-47
2021/10/15 00:28:55;;;;;;;;;;;16.10;99.90;;;;;;5030565;28;980;-46
2021/10/15 00:31:22;;;;;;;;;;;16.10;99.90;;;;;;5036386;28;829;-46
2021/10/15 00:33:49;;;;;;;;;;;16.10;99.90;;;;;;5036402;28;1015;-46
2021/10/15 00:36:15;;;;;;;;;;;16.10;99.90;;;;;;5036341;28;1913;-46
2021/10/15 00:38:41;;;;;;;;;;;16.10;99.90;;;;;;5036419;28;1055;-46
2021/10/15 00:41:08;;;;;;;;;;;16.10;99.90;;;;;;5036641;28;952;-46
2021/10/15 00:43:34;;;;;;;;;;;16.00;99.90;;;;;;5036488;28;1010;-46
2021/10/15 00:46:00;;;;;;;;;;;16.00;99.90;;;;;;5018868;28;1124;-46
2021/10/15 00:48:25;;;;;;;;;;;16.00;99.90;;;;;;5036557;28;960;-46
2021/10/15 00:50:53;;;;;;;;;;;16.00;99.90;;;;;;5018882;28;1070;-46
2021/10/15 00:53:21;;;;;;;;;;;16.00;99.90;;;;;;5036087;28;1016;-46
2021/10/15 00:55:48;;;;;;;;;;;16.00;99.90;;;;;;5035950;28;1083;-46
2021/10/15 00:58:14;;;;;;;;;;;16.00;99.90;;;;;;5033432;28;1894;-46
2021/10/15 01:00:40;;;;;;;;;;;16.00;99.90;;;;;;5017808;28;1323;-46
2021/10/15 01:03:07;;;;;;;;;;;16.00;99.90;;;;;;5036374;28;802;-46
2021/10/15 01:05:33;;;;;;;;;;;16.00;99.90;;;;;;5036050;28;1044;-46
2021/10/15 01:07:59;;;;;;;;;;;16.00;99.90;;;;;;5035919;28;934;-46
2021/10/15 01:10:26;;;;;;;;;;;16.00;99.90;;;;;;5035991;28;1018;-46
2021/10/15 01:12:54;;;;;;;;;;;16.00;99.90;;;;;;5018847;28;867;-46
2021/10/15 01:15:21;;;;;;;;;;;16.00;99.90;;;;;;5035973;28;971;-46
2021/10/15 01:17:49;;;;;;;;;;;16.00;99.90;;;;;;5036223;28;1906;-46
2021/10/15 01:20:15;;;;;;;;;;;16.00;99.90;;;;;;5035907;28;836;-46
2021/10/15 01:22:40;;;;;;;;;;;15.90;99.90;;;;;;5018228;28;976;-46
2021/10/15 01:25:07;;;;;;;;;;;15.90;99.90;;;;;;5035892;28;984;-46
2021/10/15 01:27:32;;;;;;;;;;;15.90;99.90;;;;;;5033380;28;918;-46
2021/10/15 01:29:58;;;;;;;;;;;15.90;99.90;;;;;;5036008;28;948;-46
2021/10/15 01:32:25;;;;;;;;;;;15.90;99.90;;;;;;5040121;28;931;-46
2021/10/15 01:34:53;;;;;;;;;;;15.90;99.90;;;;;;5039415;28;1089;-46
2021/10/15 01:37:20;;;;;;;;;;;15.90;99.90;;;;;;5039662;28;1898;-46
2021/10/15 01:39:46;;;;;;;;;;;15.90;99.90;;;;;;5039336;28;1237;-46
2021/10/15 01:44:57;;;;;;;;;;;15.90;99.90;;;;;;5039645;28;986;-46
2021/10/15 01:47:24;;;;;;;;;;;15.90;99.90;;;;;;5039843;28;970;-46
2021/10/15 01:49:52;;;;;;;;;;;15.90;99.90;;;;;;5039325;28;1098;-46
2021/10/15 01:52:19;;;;;;;;;;;15.90;99.90;;;;;;5039315;28;1131;-46
2021/10/15 01:54:45;;;;;;;;;;;15.90;99.90;;;;;;5039452;28;1019;-46
2021/10/15 01:57:10;;;;;;;;;;;15.90;99.90;;;;;;5036991;28;1894;-46
2021/10/15 01:59:36;;;;;;;;;;;15.80;99.90;;;;;;5019482;28;1228;-46
2021/10/15 02:02:02;;;;;;;;;;;15.80;99.90;;;;;;5018525;28;1055;-46
2021/10/15 02:04:28;;;;;;;;;;;15.80;99.90;;;;;;5019421;28;956;-46
2021/10/15 02:06:55;;;;;;;;;;;15.80;99.90;;;;;;5019689;28;1001;-46
2021/10/15 02:09:22;;;;;;;;;;;15.80;99.90;;;;;;5019600;28;979;-46
2021/10/15 02:11:48;;;;;;;;;;;15.80;99.90;;;;;;5019368;28;1004;-46
2021/10/15 02:14:15;;;;;;;;;;;15.80;99.90;;;;;;5001553;28;1325;-46
2021/10/15 02:16:41;;;;;;;;;;;15.80;99.90;;;;;;5018972;28;1979;-46
2021/10/15 02:19:07;;;;;;;;;;;15.80;99.90;;;;;;5019478;28;874;-46
2021/10/15 02:21:33;;;;;;;;;;;15.80;99.90;;;;;;5019426;28;816;-46
2021/10/15 02:24:00;;;;;;;;;;;15.80;99.90;;;;;;5019385;28;913;-46
2021/10/15 02:26:27;;;;;;;;;;;15.80;99.90;;;;;;5015835;28;1334;-46
2021/10/15 02:28:55;;;;;;;;;;;15.80;99.90;;;;;;5032629;28;1004;-46
2021/10/15 02:31:22;;;;;;;;;;;15.70;99.90;;;;;;5038875;28;991;-46
2021/10/15 02:33:48;;;;;;;;;;;15.70;99.90;;;;;;5038712;28;1021;-46
2021/10/15 02:36:15;;;;;;;;;;;15.70;99.90;;;;;;5038690;28;1031;-46
2021/10/15 02:38:41;;;;;;;;;;;15.70;99.90;;;;;;5038154;28;1898;-46
2021/10/15 02:41:07;;;;;;;;;;;15.70;99.90;;;;;;5038540;28;961;-46
2021/10/15 02:43:33;;;;;;;;;;;15.70;99.90;;;;;;5038332;28;953;-46
2021/10/15 02:46:00;;;;;;;;;;;15.70;99.90;;;;;;5038195;28;1039;-46
2021/10/15 02:48:25;;;;;;;;;;;15.70;99.90;;;;;;5038704;28;954;-47
2021/10/15 02:50:52;;;;;;;;;;;15.70;99.90;;;;;;5038308;28;1168;-46
2021/10/15 02:53:18;;;;;;;;;;;15.70;99.90;;;;;;5038354;28;849;-46
2021/10/15 02:55:44;;;;;;;;;;;15.70;99.90;;;;;;5020529;28;1192;-46
2021/10/15 02:58:10;;;;;;;;;;;15.70;99.90;;;;;;5018206;28;1963;-46
2021/10/15 03:00:36;;;;;;;;;;;15.70;99.90;;;;;;5037786;28;1165;-46
2021/10/15 03:03:02;;;;;;;;;;;15.70;99.90;;;;;;5038464;28;1016;-46
2021/10/15 03:05:29;;;;;;;;;;;15.70;99.90;;;;;;5038968;28;1073;-46
2021/10/15 03:07:56;;;;;;;;;;;15.60;99.90;;;;;;5038305;28;1109;-46
2021/10/15 03:10:24;;;;;;;;;;;15.60;99.90;;;;;;5038305;28;950;-46
2021/10/15 03:12:50;;;;;;;;;;;15.60;99.90;;;;;;5020500;28;928;-46
2021/10/15 03:15:17;;;;;;;;;;;15.60;99.90;;;;;;5037660;28;1734;-46
2021/10/15 03:17:44;;;;;;;;;;;15.60;99.90;;;;;;5038093;28;1913;-46
2021/10/15 03:20:10;;;;;;;;;;;15.60;99.90;;;;;;5038113;28;1039;-47
2021/10/15 03:22:36;;;;;;;;;;;15.60;99.90;;;;;;5037828;28;1044;-46
2021/10/15 03:25:02;;;;;;;;;;;15.60;99.90;;;;;;5037638;28;957;-46
2021/10/15 03:27:29;;;;;;;;;;;15.60;99.90;;;;;;5035303;28;937;-46
2021/10/15 03:29:57;;;;;;;;;;;15.60;99.90;;;;;;5037794;28;1011;-47
2021/10/15 03:32:24;;;;;;;;;;;15.60;99.90;;;;;;5019812;28;1157;-46
2021/10/15 03:34:50;;;;;;;;;;;15.60;99.90;;;;;;5037847;28;905;-46
2021/10/15 03:37:16;;;;;;;;;;;15.60;99.90;;;;;;5037346;28;1898;-46
2021/10/15 03:39:42;;;;;;;;;;;15.60;99.90;;;;;;5020568;28;1004;-47
2021/10/15 03:42:07;;;;;;;;;;;15.60;99.90;;;;;;5037683;28;940;-46
2021/10/15 03:44:34;;;;;;;;;;;15.60;99.90;;;;;;5037205;28;1027;-47
2021/10/15 03:47:00;;;;;;;;;;;15.60;99.90;;;;;;5037475;28;806;-46
2021/10/15 03:49:27;;;;;;;;;;;15.50;99.90;;;;;;5019924;28;928;-46
2021/10/15 03:51:52;;;;;;;;;;;15.50;99.90;;;;;;5022167;28;1597;-46
2021/10/15 03:54:18;;;;;;;;;;;15.50;99.90;;;;;;5006155;28;1145;-46
2021/10/15 03:56:44;;;;;;;;;;;15.50;99.90;;;;;;5016402;28;1985;-46
2021/10/15 03:59:10;;;;;;;;;;;15.50;99.90;;;;;;5033444;28;1412;-46
2021/10/15 04:01:36;;;;;;;;;;;15.50;99.90;;;;;;5037166;28;933;-46
2021/10/15 04:04:03;;;;;;;;;;;15.50;99.90;;;;;;5036981;28;961;-46
2021/10/15 04:06:30;;;;;;;;;;;15.50;99.90;;;;;;5036930;28;1055;-46
2021/10/15 04:08:59;;;;;;;;;;;15.50;99.90;;;;;;5037719;28;1794;-46
2021/10/15 04:11:26;;;;;;;;;;;15.50;99.90;;;;;;5036810;28;956;-46
2021/10/15 04:13:52;;;;;;;;;;;15.50;99.90;;;;;;5034346;28;1722;-46
2021/10/15 04:16:18;;;;;;;;;;;15.50;99.90;;;;;;5008416;28;804;-46
2021/10/15 04:18:43;;;;;;;;;;;15.50;99.90;;;;;;4996845;28;1910;-46
2021/10/15 04:21:09;;;;;;;;;;;15.50;99.90;;;;;;4980450;28;818;-46
2021/10/15 04:23:35;;;;;;;;;;;15.50;99.90;;;;;;4996904;28;1085;-46
2021/10/15 04:26:02;;;;;;;;;;;15.50;99.90;;;;;;4980145;28;1112;-46
2021/10/15 04:28:29;;;;;;;;;;;15.50;99.90;;;;;;4993192;28;1395;-46
2021/10/15 04:30:55;;;;;;;;;;;15.50;99.90;;;;;;5016529;28;877;-46
2021/10/15 04:33:22;;;;;;;;;;;15.50;99.90;;;;;;4999394;28;1692;-46
2021/10/15 04:35:48;;;;;;;;;;;15.50;99.90;;;;;;5016907;28;1149;-46
2021/10/15 04:38:14;;;;;;;;;;;15.50;99.90;;;;;;5016827;28;1898;-46
2021/10/15 04:40:40;;;;;;;;;;;15.50;99.90;;;;;;5015774;28;901;-46
2021/10/15 04:43:07;;;;;;;;;;;15.50;99.90;;;;;;5016742;28;1039;-46
2021/10/15 04:45:34;;;;;;;;;;;15.50;99.90;;;;;;5015901;28;1153;-46
2021/10/15 04:48:01;;;;;;;;;;;15.40;99.90;;;;;;4998716;28;1203;-46
2021/10/15 04:50:28;;;;;;;;;;;15.40;99.90;;;;;;5016206;28;928;-46
2021/10/15 04:52:54;;;;;;;;;;;15.40;99.90;;;;;;5016509;28;848;-46
2021/10/15 04:55:20;;;;;;;;;;;15.40;99.90;;;;;;5016763;28;933;-46
2021/10/15 04:57:47;;;;;;;;;;;15.40;99.90;;;;;;5020964;28;1902;-46
2021/10/15 05:00:14;;;;;;;;;;;15.40;99.90;;;;;;5036398;28;1365;-46
2021/10/15 05:02:40;;;;;;;;;;;15.40;99.90;;;;;;5036425;28;968;-46
2021/10/15 05:05:07;;;;;;;;;;;15.40;99.90;;;;;;5035692;28;1010;-46
2021/10/15 05:07:34;;;;;;;;;;;15.40;99.90;;;;;;5018729;28;984;-46
2021/10/15 05:10:00;;;;;;;;;;;15.40;99.90;;;;;;5035913;28;905;-46
2021/10/15 05:12:26;;;;;;;;;;;15.40;99.90;;;;;;5036070;28;844;-46
2021/10/15 05:14:52;;;;;;;;;;;15.40;99.90;;;;;;5018561;28;975;-46
2021/10/15 05:17:20;;;;;;;;;;;15.50;99.90;;;;;;5035828;28;1906;-46
2021/10/15 05:19:47;;;;;;;;;;;15.40;99.90;;;;;;5036086;28;1016;-46
2021/10/15 05:22:15;;;;;;;;;;;15.40;99.90;;;;;;5036278;28;964;-46
2021/10/15 05:24:42;;;;;;;;;;;15.40;99.90;;;;;;5035914;28;948;-46
2021/10/15 05:27:08;;;;;;;;;;;15.50;99.90;;;;;;5033977;28;980;-46
2021/10/15 05:29:34;;;;;;;;;;;15.40;99.90;;;;;;4994983;28;1130;-46
2021/10/15 05:32:00;;;;;;;;;;;15.40;99.90;;;;;;4995257;28;983;-46
2021/10/15 05:34:26;;;;;;;;;;;15.40;99.90;;;;;;4995015;28;1095;-46
2021/10/15 05:36:52;;;;;;;;;;;15.40;99.90;;;;;;4994974;28;885;-46
2021/10/15 05:39:19;;;;;;;;;;;15.40;99.90;;;;;;4978780;28;1970;-46
2021/10/15 05:41:45;;;;;;;;;;;15.50;99.90;;;;;;4995084;28;1163;-46
2021/10/15 05:44:12;;;;;;;;;;;15.40;99.90;;;;;;4978685;28;954;-46
2021/10/15 05:46:38;;;;;;;;;;;15.40;99.90;;;;;;4994967;28;896;-46
2021/10/15 05:49:07;;;;;;;;;;;15.40;99.90;;;;;;4994924;28;1058;-46
2021/10/15 05:51:37;;;;;;;;;;;15.40;99.90;;;;;;4978742;28;968;-46
2021/10/15 05:54:04;;;;;;;;;;;15.40;99.90;;;;;;4994697;28;972;-46
2021/10/15 05:59:14;;;;;;;;;;;15.40;99.90;;;;;;4994376;28;1899;-46
2021/10/15 06:01:40;;;;;;;;;;;15.40;99.90;;;;;;5015328;28;1750;-46
2021/10/15 06:15:10;;;;;;;;;;;15.60;99.90;;;;;;4998493;28;1000;-46
2021/10/15 06:17:43;;;;;;;;;;;15.70;99.90;;;;;;4998976;28;1911;-46
2021/10/15 06:20:10;;;;;;;;;;;15.80;99.90;;;;;;5019105;28;1102;-46
2021/10/15 06:22:36;;;;;;;;;;;15.90;99.90;;;;;;5017948;28;1008;-46
2021/10/15 06:25:02;;;;;;;;;;;16.00;99.90;;;;;;5019389;28;835;-46
2021/10/15 06:27:28;;;;;;;;;;;16.10;99.90;;;;;;5021338;28;957;-46
2021/10/15 06:29:54;;;;;;;;;;;16.10;99.90;;;;;;5029599;28;1370;-46
2021/10/15 06:32:21;;;;;;;;;;;16.10;99.90;;;;;;5018707;28;1008;-46
2021/10/15 06:34:49;;;;;;;;;;;16.20;99.90;;;;;;5019189;28;909;-46
2021/10/15 06:37:16;;;;;;;;;;;16.20;99.90;;;;;;5019059;28;1973;-46
2021/10/15 06:39:43;;;;;;;;;;;16.30;99.90;;;;;;5018423;28;915;-46
2021/10/15 06:42:09;;;;;;;;;;;16.30;99.90;;;;;;5001299;28;977;-47
2021/10/15 06:44:35;;;;;;;;;;;16.30;99.90;;;;;;5018864;28;1007;-46
2021/10/15 06:47:01;;;;;;;;;;;16.40;99.90;;;;;;5018564;28;1035;-46
2021/10/15 06:49:27;;;;;;;;;;;16.40;99.90;;;;;;5018595;28;1153;-46
2021/10/15 06:51:54;;;;;;;;;;;16.50;99.90;;;;;;5001371;28;941;-46
2021/10/15 06:54:20;;;;;;;;;;;16.50;99.90;;;;;;5019120;28;1700;-46
2021/10/15 06:56:48;;;;;;;;;;;16.50;99.90;;;;;;5018111;28;918;-46
2021/10/15 06:59:14;;;;;;;;;;;16.60;99.90;;;;;;4968744;28;1907;-46
2021/10/15 07:01:39;;;;;;;;;;;16.60;99.90;;;;;;5018437;28;984;-46
2021/10/15 07:04:05;;;;;;;;;;;16.60;99.90;;;;;;5018402;28;1039;-46
2021/10/15 07:06:31;;;;;;;;;;;16.70;99.90;;;;;;5018620;28;897;-46
2021/10/15 07:08:58;;;;;;;;;;;16.70;99.90;;;;;;5018337;28;1031;-46
2021/10/15 07:11:24;;;;;;;;;;;16.70;99.90;;;;;;5018298;28;1038;-46
2021/10/15 07:13:51;;;;;;;;;;;16.70;99.90;;;;;;5001304;28;833;-46
2021/10/15 07:16:17;;;;;;;;;;;16.70;99.90;;;;;;5015296;23;1852;-50
2021/10/15 07:18:43;;;;;;;;;;;16.70;99.90;;;;;;5026844;28;1977;-50
2021/10/15 07:21:09;;;;;;;;;;;16.70;99.90;;;;;;5036864;28;1000;-48
2021/10/15 07:23:35;;;;;;;;;;;16.70;99.90;;;;;;5038197;28;954;-47
2021/10/15 07:26:02;;;;;;;;;;;16.70;99.90;;;;;;5038034;28;777;-47
2021/10/15 07:28:28;;;;;;;;;;;16.60;99.90;;;;;;5037842;28;983;-47
2021/10/15 07:30:55;;;;;;;;;;;16.60;99.90;;;;;;5037346;28;1027;-47
2021/10/15 07:33:21;;;;;;;;;;;16.60;99.90;;;;;;5037895;28;975;-47
2021/10/15 07:35:47;;;;;;;;;;;16.60;99.90;;;;;;5037404;28;1148;-47
2021/10/15 07:38:13;;;;;;;;;;;16.60;99.90;;;;;;5037437;28;1894;-47
2021/10/15 07:40:40;;;;;;;;;;;16.60;99.90;;;;;;5037744;28;873;-47
2021/10/15 07:43:06;;;;;;;;;;;16.60;99.90;;;;;;5036499;28;1012;-44
2021/10/15 07:45:33;;;;;;;;;;;16.50;99.90;;;;;;5035107;28;938;-44
2021/10/15 07:47:59;;;;;;;;;;;16.50;99.90;;;;;;5017469;28;947;-44
2021/10/15 07:50:25;;;;;;;;;;;16.50;99.90;;;;;;5017742;28;838;-44
2021/10/15 07:52:51;;;;;;;;;;;16.50;99.90;;;;;;5017576;28;1081;-44
2021/10/15 07:55:16;;;;;;;;;;;16.50;99.90;;;;;;5017740;28;911;-44
2021/10/15 07:57:42;;;;;;;;;;;16.40;99.90;;;;;;5032687;28;1963;-44
2021/10/15 08:00:09;;;;;;;;;;;16.40;99.90;;;;;;5018132;28;1674;-47
2021/10/15 08:02:35;;;;;;;;;;;16.40;99.90;;;;;;5016118;28;744;-47
2021/10/15 08:05:02;;;;;;;;;;;16.40;99.90;;;;;;5017524;28;992;-47
2021/10/15 08:07:27;;;;;;;;;;;16.40;99.90;;;;;;5017531;28;921;-47
2021/10/15 08:09:53;;;;;;;;;;;16.40;99.90;;;;;;5017305;28;1100;-47
2021/10/15 08:12:19;;;;;;;;;;;16.40;99.90;;;;;;5016056;28;1257;-47
2021/10/15 08:14:45;;;;;;;;;;;16.30;99.90;;;;;;5006392;28;1350;-47
2021/10/15 08:17:16;;;;;;;;;;;16.30;99.90;;;;;;5013279;28;1648;-50
2021/10/15 08:19:43;;;;;;;;;;;16.30;99.90;;;;;;4954246;28;1906;-50
2021/10/15 08:22:09;;;;;;;;;;;16.30;99.90;;;;;;5016845;28;1807;-49
2021/10/15 08:24:35;;;;;;;;;;;16.40;99.90;;;;;;5016459;28;998;-48
2021/10/15 08:27:03;;;;;;;;;;;16.40;99.90;;;;;;5009409;28;1247;-50
2021/10/15 08:29:30;;;;;;;;;;;16.40;99.90;;;;;;5001274;28;1305;-49
2021/10/15 08:31:56;;;;;;;;;;;16.40;99.90;;;;;;4997089;28;979;-48
2021/10/15 08:34:24;;;;;;;;;;;16.40;99.90;;;;;;4996947;28;1004;-48
2021/10/15 08:36:53;;;;;;;;;;;16.40;99.90;;;;;;4997536;28;926;-49
2021/10/15 08:39:22;;;;;;;;;;;16.40;99.90;;;;;;4996073;28;1958;-48
2021/10/15 08:41:48;;;;;;;;;;;16.40;99.90;;;;;;4997280;28;1357;-48
2021/10/15 08:44:14;;;;;;;;;;;16.50;99.90;;;;;;4999129;28;1380;-49
2021/10/15 08:46:40;;;;;;;;;;;16.50;99.90;;;;;;5009009;28;1203;-48
2021/10/15 08:49:06;;;;;;;;;;;16.50;99.90;;;;;;5016829;28;899;-48
2021/10/15 08:51:34;;;;;;;;;;;16.60;99.90;;;;;;5016377;28;1035;-48
2021/10/15 08:54:00;;;;;;;;;;;16.60;99.90;;;;;;5016849;28;843;-48
2021/10/15 08:56:30;;;;;;;;;;;16.60;99.90;;;;;;5016756;28;891;-48
2021/10/15 08:58:58;;;;;;;;;;;16.60;99.90;;;;;;5015668;28;1902;-48
2021/10/15 09:01:28;;;;;;;;;;;16.60;99.90;;;;;;5014434;28;1181;-48
2021/10/15 09:03:57;;;;;;;;;;;16.60;99.90;;;;;;5015532;28;956;-49
2021/10/15 09:06:23;;;;;;;;;;;16.70;99.90;;;;;;5015539;28;964;-48
2021/10/15 09:09:08;;;;;;;;;;;16.70;99.90;;;;;;5017168;28;887;-48
2021/10/15 09:11:36;;;;;;;;;;;16.70;99.90;;;;;;5016358;28;1004;-48
2021/10/15 09:14:10;;;;;;;;;;;16.70;99.90;;;;;;5015885;28;1044;-48
2021/10/15 09:16:54;;;;;;;;;;;16.70;99.90;;;;;;5015064;28;1150;-48
2021/10/15 09:19:21;;;;;;;;;;;16.70;99.90;;;;;;5013227;28;1958;-48
2021/10/15 09:22:06;;;;;;;;;;;16.70;99.90;;;;;;5015245;28;904;-48
2021/10/15 09:24:34;;;;;;;;;;;16.70;99.90;;;;;;5016316;28;1207;-48
2021/10/15 09:27:09;;;;;;;;;;;16.70;99.90;;;;;;5016448;28;971;-48
2021/10/15 09:29:42;;;;;;;;;;;16.70;99.90;;;;;;5016410;28;959;-49
2021/10/15 09:32:08;;;;;;;;;;;16.70;99.90;;;;;;5015858;28;906;-48
2021/10/15 09:34:34;;;;;;;;;;;16.50;99.90;;;;;;5016263;28;1023;-48
2021/10/15 09:37:00;;;;;;;;;;;16.40;99.90;;;;;;5016379;28;849;-49
2021/10/15 09:39:26;;;;;;;;;;;16.40;99.90;;;;;;5010326;28;1902;-49
2021/10/15 09:41:53;;;;;;;;;;;16.50;99.90;;;;;;5003184;28;1444;-49
2021/10/15 09:44:33;;;;;;;;;;;16.90;99.90;;;;;;5005561;28;1404;-48
2021/10/15 09:47:21;;;;;;;;;;;17.40;99.90;;;;;;5009960;28;1199;-48
2021/10/15 09:49:52;;;;;;;;;;;17.80;99.90;;;;;;5004379;28;1441;-49
2021/10/15 09:52:24;;;;;;;;;;;18.10;99.90;;;;;;5006348;28;1384;-49
2021/10/15 09:54:57;;;;;;;;;;;18.30;99.90;;;;;;5008789;28;1341;-49
2021/10/15 09:57:33;;;;;;;;;;;18.40;99.90;;;;;;5001048;28;1451;-48
2021/10/15 09:59:59;;;;;;;;;;;18.50;99.90;;;;;;4998999;28;1954;-48
2021/10/15 10:02:26;;;;;;;;;;;18.20;99.90;;;;;;4999941;28;802;-48
2021/10/15 10:04:55;;;;;;;;;;;17.90;99.90;;;;;;5012376;28;1207;-48
2021/10/15 10:07:24;;;;;;;;;;;17.70;99.90;;;;;;5014368;28;1393;-48
2021/10/15 10:09:52;;;;;;;;;;;17.60;99.90;;;;;;5009858;28;1384;-48
2021/10/15 10:12:19;;;;;;;;;;;17.50;99.90;;;;;;5008258;28;1325;-48
2021/10/15 10:14:46;;;;;;;;;;;17.40;99.90;;;;;;5012191;28;1389;-46
2021/10/15 10:17:17;;;;;;;;;;;17.30;99.90;;;;;;5018685;28;1071;-46
2021/10/15 10:19:45;;;;;;;;;;;17.30;99.90;;;;;;5003733;28;1910;-46
2021/10/15 10:22:11;;;;;;;;;;;17.30;99.90;;;;;;5009132;28;1396;-46
2021/10/15 10:24:43;;;;;;;;;;;17.30;99.90;;;;;;5009550;28;1364;-46
2021/10/15 10:27:09;;;;;;;;;;;17.20;99.90;;;;;;5010348;28;1382;-46
2021/10/15 10:29:45;;;;;;;;;;;17.20;99.90;;;;;;5018915;28;929;-53
2021/10/15 10:32:15;;;;;;;;;;;17.30;99.90;;;;;;5008401;28;1320;-47
2021/10/15 10:34:43;;;;;;;;;;;17.40;99.90;;;;;;4999627;28;841;-46
2021/10/15 10:37:10;;;;;;;;;;;17.40;99.90;;;;;;4999252;28;1020;-46
2021/10/15 10:39:37;;;;;;;;;;;17.40;99.90;;;;;;5015729;28;1981;-46
2021/10/15 10:42:10;;;;;;;;;;;17.40;99.90;;;;;;5018238;28;856;-46
2021/10/15 10:44:36;;;;;;;;;;;17.40;99.90;;;;;;5018361;28;1093;-46
2021/10/15 10:47:06;;;;;;;;;;;17.40;99.90;;;;;;5018441;28;996;-47
2021/10/15 10:49:32;;;;;;;;;;;17.40;99.90;;;;;;5019027;28;964;-46
2021/10/15 10:52:13;;;;;;;;;;;17.50;99.90;;;;;;5013193;28;1219;-47
2021/10/15 10:54:39;;;;;;;;;;;17.70;99.90;;;;;;5006966;28;1376;-46
2021/10/15 10:57:16;;;;;;;;;;;17.70;99.90;;;;;;5015837;28;1183;-47
2021/10/15 10:59:43;;;;;;;;;;;17.70;99.90;;;;;;5016120;28;1898;-46
2021/10/15 11:02:13;;;;;;;;;;;17.70;99.90;;;;;;5016127;28;1227;-47
2021/10/15 11:04:42;;;;;;;;;;;17.60;99.90;;;;;;5018263;28;1142;-46
2021/10/15 11:07:21;;;;;;;;;;;17.60;99.90;;;;;;5018394;28;815;-47
2021/10/15 11:09:53;;;;;;;;;;;17.60;99.90;;;;;;5018259;28;942;-47
2021/10/15 11:12:21;;;;;;;;;;;17.60;99.90;;;;;;5018547;28;1016;-46
2021/10/15 11:14:50;;;;;;;;;;;17.60;99.90;;;;;;5018513;28;984;-46
2021/10/15 11:17:17;;;;;;;;;;;17.60;99.90;;;;;;5017411;28;1384;-47
2021/10/15 11:19:44;;;;;;;;;;;17.60;99.90;;;;;;5018012;28;1910;-46
2021/10/15 11:22:10;;;;;;;;;;;17.60;99.90;;;;;;5017606;28;1057;-46
2021/10/15 11:24:36;;;;;;;;;;;17.70;99.90;;;;;;5018239;28;893;-46
2021/10/15 11:27:15;;;;;;;;;;;17.70;99.90;;;;;;5032900;28;914;-46
2021/10/15 11:30:08;;;;;;;;;;;17.80;99.90;;;;;;5018039;28;819;-47
2021/10/15 11:32:35;;;;;;;;;;;17.80;99.90;;;;;;5014805;28;1644;-47
2021/10/15 11:35:04;;;;;;;;;;;17.80;99.90;;;;;;5017480;28;1020;-47
2021/10/15 11:37:47;;;;;;;;;;;17.80;99.90;;;;;;5017627;28;902;-47
2021/10/15 11:40:13;;;;;;;;;;;17.90;99.90;;;;;;5017925;28;1898;-47
2021/10/15 11:42:39;;;;;;;;;;;17.90;99.90;;;;;;5018249;28;788;-47
2021/10/15 11:45:20;;;;;;;;;;;17.90;99.90;;;;;;5018218;28;972;-47
2021/10/15 11:48:04;;;;;;;;;;;17.90;99.90;;;;;;5016149;28;1078;-47
2021/10/15 11:50:31;;;;;;;;;;;18.00;99.90;;;;;;5013570;28;1222;-48
2021/10/15 11:53:02;;;;;;;;;;;18.10;99.90;;;;;;4998178;28;1389;-47
2021/10/15 11:55:35;;;;;;;;;;;18.20;99.90;;;;;;4996014;28;1668;-47
2021/10/15 11:58:18;;;;;;;;;;;18.30;99.90;;;;;;4996817;28;1902;-47
2021/10/15 12:01:02;;;;;;;;;;;18.30;99.90;;;;;;4996123;28;915;-47
2021/10/15 12:03:33;;;;;;;;;;;18.30;99.90;;;;;;5013200;28;873;-47
2021/10/15 12:06:28;;;;;;;;;;;18.30;99.90;;;;;;4996371;28;1242;-47
2021/10/15 12:08:57;;;;;;;;;;;18.30;99.90;;;;;;4983960;28;1671;-47
2021/10/15 12:11:42;;;;;;;;;;;18.30;99.90;;;;;;4997889;28;938;-47
2021/10/15 12:14:15;;;;;;;;;;;18.30;99.90;;;;;;4997617;28;965;-47
2021/10/15 12:16:41;;;;;;;;;;;18.30;99.90;;;;;;5007354;28;1323;-47
2021/10/15 12:19:11;;;;;;;;;;;18.30;99.90;;;;;;5017145;28;1910;-47
2021/10/15 12:21:41;;;;;;;;;;;18.20;99.90;;;;;;5016602;28;1253;-47
2021/10/15 12:24:09;;;;;;;;;;;18.20;99.90;;;;;;5017156;28;868;-47
2021/10/15 12:26:36;;;;;;;;;;;18.20;99.90;;;;;;5017031;28;973;-47
2021/10/15 12:29:03;;;;;;;;;;;18.20;99.90;;;;;;5017078;28;884;-47
2021/10/15 12:31:29;;;;;;;;;;;18.10;99.90;;;;;;5013448;28;1405;-47
2021/10/15 12:34:02;;;;;;;;;;;18.10;99.90;;;;;;5015642;28;973;-47
2021/10/15 12:36:28;;;;;;;;;;;18.10;99.90;;;;;;5016671;28;1171;-47
2021/10/15 12:39:13;;;;;;;;;;;18.10;99.90;;;;;;5016949;28;1903;-47
2021/10/15 12:41:39;;;;;;;;;;;18.10;99.90;;;;;;5012836;28;1500;-49
2021/10/15 12:44:18;;;;;;;;;;;18.10;99.90;;;;;;5001790;28;1820;-48
2021/10/15 12:46:58;;;;;;;;;;;18.10;99.90;;;;;;5016151;28;988;-48
2021/10/15 12:49:24;;;;;;;;;;;18.00;99.90;;;;;;5017410;28;1877;-47
2021/10/15 12:51:50;;;;;;;;;;;17.90;99.90;;;;;;5016561;28;1749;-47
2021/10/15 12:54:34;;;;;;;;;;;17.90;99.90;;;;;;5016103;28;944;-47
2021/10/15 12:57:10;;;;;;;;;;;17.90;99.90;;;;;;5016691;28;1926;-47
2021/10/15 12:59:36;;;;;;;;;;;17.90;99.90;;;;;;5015470;28;1903;-47
2021/10/15 13:02:06;;;;;;;;;;;17.80;99.90;;;;;;5011207;28;1577;-48
2021/10/15 13:04:33;;;;;;;;;;;17.80;99.90;;;;;;5004609;28;920;-47
2021/10/15 13:07:00;;;;;;;;;;;17.80;99.90;;;;;;4996679;28;970;-47
2021/10/15 13:09:26;;;;;;;;;;;17.70;99.90;;;;;;4996827;28;996;-47
2021/10/15 13:11:52;;;;;;;;;;;17.70;99.90;;;;;;4996918;28;951;-47
2021/10/15 13:14:18;;;;;;;;;;;17.70;99.90;;;;;;5005233;28;1950;-47
2021/10/15 13:16:44;;;;;;;;;;;17.60;99.90;;;;;;5015783;28;1039;-48
2021/10/15 13:19:10;;;;;;;;;;;17.60;99.90;;;;;;5016480;28;1983;-47
2021/10/15 13:21:36;;;;;;;;;;;17.60;99.90;;;;;;5016624;28;861;-47
2021/10/15 13:24:02;;;;;;;;;;;17.50;99.90;;;;;;5015978;28;1673;-47
2021/10/15 13:26:28;;;;;;;;;;;17.50;99.90;;;;;;5018055;28;1281;-47
2021/10/15 13:28:53;;;;;;;;;;;17.50;99.90;;;;;;5020722;28;825;-47
2021/10/15 13:31:20;;;;;;;;;;;17.50;99.90;;;;;;5020238;28;935;-47
2021/10/15 13:33:46;;;;;;;;;;;17.50;99.90;;;;;;5020186;28;1678;-47
2021/10/15 13:36:12;;;;;;;;;;;17.50;99.90;;;;;;5020357;28;970;-47
2021/10/15 13:38:38;;;;;;;;;;;17.50;99.90;;;;;;5020432;28;1898;-47
2021/10/15 13:41:12;;;;;;;;;;;17.50;99.90;;;;;;5020243;28;800;-47
2021/10/15 13:46:30;;;;;;;;;;;17.50;99.90;;;;;;5019826;28;991;-47
2021/10/15 13:51:55;;;;;;;;;;;17.50;99.90;;;;;;4997530;28;1346;-47
2021/10/15 13:54:21;;;;;;;;;;;17.50;99.90;;;;;;5018807;28;1181;-47
2021/10/15 13:56:48;;;;;;;;;;;17.50;99.90;;;;;;5019261;28;1029;-47
2021/10/15 13:59:18;;;;;;;;;;;17.50;99.90;;;;;;5018374;28;1910;-47
2021/10/15 14:01:53;;;;;;;;;;;17.50;99.90;;;;;;5018118;28;1039;-47
2021/10/15 14:04:33;;;;;;;;;;;17.60;99.90;;;;;;5019608;28;996;-47
2021/10/15 14:06:59;;;;;;;;;;;17.60;99.90;;;;;;5019511;28;1142;-47
2021/10/15 14:09:28;;;;;;;;;;;17.60;99.90;;;;;;5018523;28;897;-47
2021/10/15 14:11:54;;;;;;;;;;;17.70;99.90;;;;;;5019676;28;1022;-47
2021/10/15 14:14:20;;;;;;;;;;;17.80;99.90;;;;;;5035089;28;1087;-47
2021/10/15 14:16:46;;;;;;;;;;;17.90;99.90;;;;;;5006855;28;1620;-47
2021/10/15 14:19:12;;;;;;;;;;;17.90;99.90;;;;;;4999889;28;1981;-47
2021/10/15 14:21:40;;;;;;;;;;;18.00;99.90;;;;;;4999622;28;1107;-47
2021/10/15 14:24:06;;;;;;;;;;;18.10;99.90;;;;;;4999906;28;868;-47
2021/10/15 14:26:32;;;;;;;;;;;18.10;99.90;;;;;;4998574;28;1077;-47
2021/10/15 14:28:58;;;;;;;;;;;18.10;99.90;;;;;;5014697;28;966;-47
2021/10/15 14:31:24;;;;;;;;;;;18.10;99.90;;;;;;4999335;28;1043;-47
2021/10/15 14:33:50;;;;;;;;;;;18.10;99.90;;;;;;4999534;28;976;-47
2021/10/15 14:36:16;;;;;;;;;;;18.10;99.90;;;;;;4999427;28;1148;-47
2021/10/15 14:38:42;;;;;;;;;;;18.00;99.90;;;;;;5001070;28;1902;-47
2021/10/15 14:41:08;;;;;;;;;;;18.00;99.90;;;;;;5010111;28;1597;-47
2021/10/15 14:43:35;;;;;;;;;;;18.10;99.90;;;;;;5009144;28;1214;-48
2021/10/15 14:46:01;;;;;;;;;;;18.10;99.90;;;;;;5009150;28;936;-47
2021/10/15 14:48:27;;;;;;;;;;;18.10;99.90;;;;;;4999040;28;1104;-47
2021/10/15 14:50:53;;;;;;;;;;;18.20;99.90;;;;;;5017905;28;1197;-47
2021/10/15 14:53:19;;;;;;;;;;;18.20;99.90;;;;;;5017640;28;949;-48
2021/10/15 14:55:45;;;;;;;;;;;18.20;99.90;;;;;;5017595;28;1154;-48
2021/10/15 14:58:11;;;;;;;;;;;18.20;99.90;;;;;;5001486;28;1223;-47
2021/10/15 15:00:37;;;;;;;;;;;18.10;99.90;;;;;;5018433;28;1902;-47
2021/10/15 15:03:07;;;;;;;;;;;18.10;99.90;;;;;;5005368;28;1143;-47